createdAt,value
2018-04-17T00:00:30.708Z,9.38
2018-04-17T00:02:58.424Z,9.37
2018-04-17T00:05:26.250Z,9.36
2018-04-17T00:07:53.899Z,9.36
2018-04-17T00:10:21.561Z,9.34
2018-04-17T00:12:49.162Z,9.33
2018-04-17T00:15:16.820Z,9.33
2018-04-17T00:17:44.396Z,9.31
2018-04-17T00:20:11.970Z,9.31
2018-04-17T00:22:39.679Z,9.30
2018-04-17T00:25:07.330Z,9.27
2018-04-17T00:27:35.063Z,9.25
2018-04-17T00:30:02.668Z,9.21
2018-04-17T00:32:30.425Z,9.17
2018-04-17T00:34:58.024Z,9.15
2018-04-17T00:37:25.609Z,9.12
2018-04-17T00:39:53.292Z,9.11
2018-04-17T00:42:20.872Z,9.09
2018-04-17T00:44:48.848Z,9.07
2018-04-17T00:47:16.482Z,9.04
2018-04-17T00:49:44.061Z,9.02
2018-04-17T00:52:11.754Z,8.99
2018-04-17T00:54:39.400Z,8.96
2018-04-17T00:57:07.051Z,8.93
2018-04-17T00:59:34.744Z,8.90
2018-04-17T01:02:02.423Z,8.88
2018-04-17T01:04:30.167Z,8.87
2018-04-17T01:06:58.004Z,8.87
2018-04-17T01:09:25.701Z,8.86
2018-04-17T01:11:53.320Z,8.84
2018-04-17T01:14:21.010Z,8.83
2018-04-17T01:16:48.630Z,8.81
2018-04-17T01:19:16.376Z,8.78
2018-04-17T01:21:43.992Z,8.77
2018-04-17T01:24:11.688Z,8.75
2018-04-17T01:26:39.266Z,8.75
2018-04-17T01:29:06.978Z,8.74
2018-04-17T01:31:34.650Z,8.75
2018-04-17T01:34:02.225Z,8.74
2018-04-17T01:36:29.911Z,8.72
2018-04-17T01:38:58.134Z,8.70
2018-04-17T01:41:25.724Z,8.68
2018-04-17T01:43:53.414Z,8.64
2018-04-17T01:46:21.103Z,8.63
2018-04-17T01:48:49.184Z,8.60
2018-04-17T01:51:16.872Z,8.59
2018-04-17T01:53:44.533Z,8.58
2018-04-17T01:56:12.333Z,8.57
2018-04-17T01:58:40.186Z,8.56
2018-04-17T02:01:07.772Z,8.54
2018-04-17T02:03:35.528Z,8.50
2018-04-17T02:06:03.117Z,8.48
2018-04-17T02:08:30.728Z,8.45
2018-04-17T02:10:58.423Z,8.41
2018-04-17T02:13:26.060Z,8.38
2018-04-17T02:15:53.721Z,8.35
2018-04-17T02:18:21.446Z,8.33
2018-04-17T02:20:49.060Z,8.31
2018-04-17T02:23:16.781Z,8.28
2018-04-17T02:25:44.444Z,8.21
2018-04-17T02:28:12.024Z,8.16
2018-04-17T02:30:39.687Z,8.13
2018-04-17T02:33:07.740Z,8.12
2018-04-17T02:35:35.478Z,8.09
2018-04-17T02:38:03.072Z,8.07
2018-04-17T02:40:31.227Z,8.04
2018-04-17T02:42:58.888Z,8.04
2018-04-17T02:45:26.753Z,8.02
2018-04-17T02:47:54.478Z,8.02
2018-04-17T02:50:22.074Z,8.02
2018-04-17T02:52:49.656Z,8.01
2018-04-17T02:55:17.380Z,8.01
2018-04-17T02:57:45.040Z,8.01
2018-04-17T03:00:13.051Z,7.98
2018-04-17T03:02:41.051Z,7.97
2018-04-17T03:05:08.686Z,7.95
2018-04-17T03:07:36.266Z,7.89
2018-04-17T03:10:04.542Z,7.83
2018-04-17T03:12:32.517Z,7.79
2018-04-17T03:15:00.173Z,7.77
2018-04-17T03:17:27.816Z,7.75
2018-04-17T03:19:55.477Z,7.74
2018-04-17T03:22:23.126Z,7.70
2018-04-17T03:24:50.783Z,7.66
2018-04-17T03:27:18.517Z,7.60
2018-04-17T03:29:46.312Z,7.60
2018-04-17T03:32:14.197Z,7.62
2018-04-17T03:34:41.844Z,7.60
2018-04-17T03:37:09.635Z,7.59
2018-04-17T03:39:37.672Z,7.56
2018-04-17T03:42:05.371Z,7.56
2018-04-17T03:44:33.021Z,7.56
2018-04-17T03:47:00.979Z,7.52
2018-04-17T03:49:28.691Z,7.52
2018-04-17T03:51:56.298Z,7.54
2018-04-17T03:54:24.369Z,7.53
2018-04-17T03:56:51.981Z,7.53
2018-04-17T03:59:19.710Z,7.54
2018-04-17T04:01:47.692Z,7.55
2018-04-17T04:04:15.429Z,7.57
2018-04-17T04:06:43.416Z,7.56
2018-04-17T04:09:11.070Z,7.55
2018-04-17T04:11:38.686Z,7.54
2018-04-17T04:14:06.295Z,7.53
2018-04-17T04:16:46.191Z,7.53
2018-04-17T04:19:25.490Z,7.53
2018-04-17T04:22:05.224Z,7.52
2018-04-17T04:24:44.878Z,7.51
2018-04-17T04:27:12.476Z,7.49
2018-04-17T04:29:40.221Z,7.48
2018-04-17T04:32:07.807Z,7.47
2018-04-17T04:34:35.412Z,7.47
2018-04-17T04:37:03.263Z,7.47
2018-04-17T04:39:30.882Z,7.46
2018-04-17T04:41:58.524Z,7.48
2018-04-17T04:44:26.108Z,7.49
2018-04-17T04:46:54.263Z,7.50
2018-04-17T04:49:21.880Z,7.50
2018-04-17T04:51:49.639Z,7.51
2018-04-17T04:54:17.492Z,7.54
2018-04-17T04:56:45.384Z,7.57
2018-04-17T04:59:13.258Z,7.58
2018-04-17T05:01:40.938Z,7.59
2018-04-17T05:04:08.768Z,7.61
2018-04-17T05:06:36.439Z,7.63
2018-04-17T05:09:04.134Z,7.65
2018-04-17T05:11:32.080Z,7.67
2018-04-17T05:13:59.723Z,7.69
2018-04-17T05:16:27.327Z,7.70
2018-04-17T05:18:54.986Z,7.71
2018-04-17T05:21:22.592Z,7.74
2018-04-17T05:23:50.357Z,7.75
2018-04-17T05:26:18.288Z,7.79
2018-04-17T05:28:45.881Z,7.83
2018-04-17T05:31:13.554Z,7.84
2018-04-17T05:33:41.680Z,7.87
2018-04-17T05:36:09.293Z,7.91
2018-04-17T05:38:36.869Z,7.92
2018-04-17T05:41:05.771Z,7.94
2018-04-17T05:43:33.439Z,7.97
2018-04-17T05:46:01.403Z,8.01
2018-04-17T05:48:29.213Z,8.05
2018-04-17T05:50:57.079Z,8.11
2018-04-17T05:53:24.677Z,8.17
2018-04-17T05:55:52.422Z,8.25
2018-04-17T05:58:20.301Z,8.34
2018-04-17T06:00:48.194Z,8.44
2018-04-17T06:03:16.160Z,8.59
2018-04-17T06:05:43.784Z,8.71
2018-04-17T06:08:11.393Z,8.82
2018-04-17T06:10:39.410Z,8.92
2018-04-17T06:13:07.052Z,9.03
2018-04-17T06:15:34.648Z,9.16
2018-04-17T06:18:02.268Z,9.29
2018-04-17T06:20:29.909Z,9.44
2018-04-17T06:22:58.033Z,9.59
2018-04-17T06:25:25.943Z,9.75
2018-04-17T06:27:53.800Z,9.92
2018-04-17T06:30:21.449Z,10.06
2018-04-17T06:32:49.097Z,10.23
2018-04-17T06:35:16.697Z,10.41
2018-04-17T06:37:44.340Z,10.62
2018-04-17T06:40:12.226Z,10.84
2018-04-17T06:42:39.886Z,11.03
2018-04-17T06:45:07.560Z,11.22
2018-04-17T06:47:35.236Z,11.42
2018-04-17T06:50:02.857Z,11.60
2018-04-17T06:52:30.560Z,11.73
2018-04-17T06:54:58.629Z,11.92
2018-04-17T06:57:26.280Z,12.08
2018-04-17T06:59:54.262Z,12.21
2018-04-17T07:02:21.881Z,12.33
2018-04-17T07:04:49.552Z,12.45
2018-04-17T07:07:17.157Z,12.55
2018-04-17T07:09:44.744Z,12.67
2018-04-17T07:12:12.556Z,12.79
2018-04-17T07:14:40.437Z,12.88
2018-04-17T07:17:08.389Z,13.00
2018-04-17T07:19:36.220Z,13.13
2018-04-17T07:22:03.868Z,13.20
2018-04-17T07:24:31.464Z,13.34
2018-04-17T07:26:59.137Z,13.49
2018-04-17T07:29:26.795Z,13.61
2018-04-17T07:31:54.388Z,13.76
2018-04-17T07:34:22.009Z,13.91
2018-04-17T07:36:49.618Z,14.10
2018-04-17T07:39:17.270Z,14.25
2018-04-17T07:41:44.957Z,14.38
2018-04-17T07:44:12.882Z,14.51
2018-04-17T07:46:40.587Z,14.60
2018-04-17T07:49:08.175Z,14.68
2018-04-17T07:51:35.758Z,14.77
2018-04-17T07:54:03.442Z,14.88
2018-04-17T07:56:31.020Z,14.94
2018-04-17T07:58:58.801Z,14.99
2018-04-17T08:01:26.444Z,15.13
2018-04-17T08:03:54.339Z,15.29
2018-04-17T08:06:22.186Z,15.40
2018-04-17T08:08:49.810Z,15.49
2018-04-17T08:11:17.444Z,15.64
2018-04-17T08:13:45.088Z,15.76
2018-04-17T08:16:12.728Z,15.92
2018-04-17T08:18:40.353Z,16.11
2018-04-17T08:21:08.099Z,16.24
2018-04-17T08:23:35.711Z,16.29
2018-04-17T08:26:03.304Z,16.43
2018-04-17T08:28:30.919Z,16.56
2018-04-17T08:30:58.602Z,16.73
2018-04-17T08:33:26.209Z,16.87
2018-04-17T08:35:53.811Z,17.03
2018-04-17T08:38:21.451Z,17.11
2018-04-17T08:40:49.062Z,17.23
2018-04-17T08:43:16.647Z,17.31
2018-04-17T08:45:44.356Z,17.43
2018-04-17T08:48:11.954Z,17.51
2018-04-17T08:50:39.968Z,17.56
2018-04-17T08:53:07.683Z,17.66
2018-04-17T08:55:35.262Z,17.73
2018-04-17T08:58:02.878Z,17.83
2018-04-17T09:00:30.487Z,17.96
2018-04-17T09:02:58.186Z,18.08
2018-04-17T09:05:25.771Z,18.12
2018-04-17T09:07:53.803Z,18.27
2018-04-17T09:10:21.466Z,18.37
2018-04-17T09:12:49.151Z,18.38
2018-04-17T09:15:16.774Z,18.37
2018-04-17T09:17:44.381Z,18.30
2018-04-17T09:20:12.048Z,18.36
2018-04-17T09:22:39.714Z,18.42
2018-04-17T09:25:07.360Z,18.47
2018-04-17T09:27:35.087Z,18.67
2018-04-17T09:30:02.707Z,18.86
2018-04-17T09:32:30.446Z,19.04
2018-04-17T09:34:58.133Z,19.14
2018-04-17T09:37:25.804Z,19.26
2018-04-17T09:39:53.935Z,19.41
2018-04-17T09:42:21.925Z,19.54
2018-04-17T09:44:49.526Z,19.60
2018-04-17T09:47:17.346Z,19.69
2018-04-17T09:49:44.963Z,19.90
2018-04-17T09:52:12.571Z,20.02
2018-04-17T09:54:40.228Z,20.15
2018-04-17T09:57:07.899Z,20.21
2018-04-17T09:59:35.559Z,20.16
2018-04-17T10:02:03.307Z,20.12
2018-04-17T10:04:30.909Z,19.93
2018-04-17T10:06:58.851Z,19.99
2018-04-17T10:09:26.948Z,20.02
2018-04-17T10:11:54.743Z,20.09
2018-04-17T10:14:22.341Z,20.19
2018-04-17T10:16:50.017Z,20.26
2018-04-17T10:19:17.713Z,20.23
2018-04-17T10:21:45.517Z,20.29
2018-04-17T10:24:13.109Z,20.42
2018-04-17T10:26:40.799Z,20.57
2018-04-17T10:29:08.447Z,20.80
2018-04-17T10:31:36.385Z,20.95
2018-04-17T10:34:04.076Z,21.20
2018-04-17T10:36:31.755Z,21.43
2018-04-17T10:38:59.347Z,21.42
2018-04-17T10:41:27.169Z,21.57
2018-04-17T10:43:55.033Z,21.68
2018-04-17T10:46:22.723Z,21.86
2018-04-17T10:48:50.348Z,21.99
2018-04-17T10:51:17.945Z,22.15
2018-04-17T10:53:45.746Z,22.44
2018-04-17T10:56:13.402Z,22.55
2018-04-17T10:58:41.088Z,22.44
2018-04-17T11:01:08.975Z,22.50
2018-04-17T11:03:36.617Z,22.65
2018-04-17T11:06:04.232Z,22.74
2018-04-17T11:08:31.847Z,22.86
2018-04-17T11:10:59.443Z,23.13
2018-04-17T11:13:27.166Z,23.31
2018-04-17T11:15:55.124Z,23.46
2018-04-17T11:18:22.747Z,23.56
2018-04-17T11:20:50.448Z,23.80
2018-04-17T11:23:18.140Z,23.97
2018-04-17T11:25:45.744Z,24.04
2018-04-17T11:28:13.635Z,24.01
2018-04-17T11:30:41.247Z,23.97
2018-04-17T11:33:09.385Z,23.95
2018-04-17T11:35:37.364Z,24.17
2018-04-17T11:38:05.047Z,24.33
2018-04-17T11:40:32.731Z,24.53
2018-04-17T11:43:00.367Z,24.61
2018-04-17T11:45:28.086Z,24.49
2018-04-17T11:47:55.686Z,24.38
2018-04-17T11:50:23.550Z,24.22
2018-04-17T11:52:51.231Z,24.19
2018-04-17T11:55:18.926Z,24.36
2018-04-17T11:57:46.671Z,24.48
2018-04-17T12:00:14.441Z,24.47
2018-04-17T12:02:42.068Z,24.68
2018-04-17T12:05:09.754Z,24.78
2018-04-17T12:07:37.489Z,24.77
2018-04-17T12:10:05.101Z,24.76
2018-04-17T12:12:32.778Z,24.90
2018-04-17T12:15:00.538Z,25.13
2018-04-17T12:17:28.223Z,25.19
2018-04-17T12:19:56.290Z,25.28
2018-04-17T12:22:24.092Z,25.23
2018-04-17T12:24:51.792Z,25.25
2018-04-17T12:27:19.473Z,25.18
2018-04-17T12:29:47.214Z,25.19
2018-04-17T12:32:14.826Z,25.29
2018-04-17T12:34:42.674Z,25.53
2018-04-17T12:37:10.351Z,25.81
2018-04-17T12:39:38.046Z,25.89
2018-04-17T12:42:05.969Z,26.00
2018-04-17T12:44:33.820Z,26.28
2018-04-17T12:47:01.409Z,26.40
2018-04-17T12:49:28.995Z,26.20
2018-04-17T12:51:57.015Z,26.31
2018-04-17T12:54:24.705Z,26.24
2018-04-17T12:56:52.772Z,26.37
2018-04-17T12:59:20.892Z,26.50
2018-04-17T13:01:48.495Z,26.10
2018-04-17T13:04:16.113Z,26.23
2018-04-17T13:06:43.807Z,26.21
2018-04-17T13:09:11.447Z,26.13
2018-04-17T13:11:39.150Z,26.30
2018-04-17T13:14:06.808Z,26.46
2018-04-17T13:16:34.437Z,26.71
2018-04-17T13:19:02.348Z,26.88
2018-04-17T13:21:30.109Z,26.86
2018-04-17T13:23:57.723Z,26.76
2018-04-17T13:26:25.315Z,26.68
2018-04-17T13:28:52.950Z,26.79
2018-04-17T13:31:20.547Z,26.89
2018-04-17T13:33:48.165Z,26.88
2018-04-17T13:36:15.876Z,27.05
2018-04-17T13:38:43.531Z,27.26
2018-04-17T13:41:11.238Z,27.05
2018-04-17T13:43:38.902Z,26.97
2018-04-17T13:46:06.612Z,27.09
2018-04-17T13:48:34.308Z,27.23
2018-04-17T13:51:01.991Z,27.39
2018-04-17T13:53:29.682Z,27.49
2018-04-17T13:55:57.339Z,27.40
2018-04-17T13:58:25.057Z,27.11
2018-04-17T14:00:52.741Z,27.03
2018-04-17T14:03:20.417Z,27.01
2018-04-17T14:05:48.083Z,26.94
2018-04-17T14:08:15.704Z,26.96
2018-04-17T14:10:43.651Z,26.60
2018-04-17T14:13:11.263Z,26.41
2018-04-17T14:15:38.872Z,26.20
2018-04-17T14:18:07.026Z,26.40
2018-04-17T14:20:34.623Z,26.62
2018-04-17T14:23:02.386Z,26.69
2018-04-17T14:25:30.100Z,26.56
2018-04-17T14:27:57.708Z,26.63
2018-04-17T14:30:25.372Z,26.68
2018-04-17T14:32:52.992Z,26.56
2018-04-17T14:35:20.895Z,26.40
2018-04-17T14:37:48.577Z,26.29
2018-04-17T14:40:16.175Z,26.23
2018-04-17T14:42:44.086Z,26.33
2018-04-17T14:45:11.686Z,26.28
2018-04-17T14:47:39.783Z,26.38
2018-04-17T14:50:07.464Z,26.45
2018-04-17T14:52:35.196Z,26.45
2018-04-17T14:55:03.008Z,26.38
2018-04-17T14:57:30.652Z,26.25
2018-04-17T14:59:58.317Z,26.12
2018-04-17T15:02:26.184Z,26.07
2018-04-17T15:04:53.839Z,26.09
2018-04-17T15:07:21.498Z,26.06
2018-04-17T15:09:49.294Z,26.14
2018-04-17T15:12:17.021Z,26.26
2018-04-17T15:14:44.641Z,26.31
2018-04-17T15:17:12.232Z,26.19
2018-04-17T15:19:40.293Z,25.99
2018-04-17T15:22:08.087Z,25.90
2018-04-17T15:24:35.694Z,25.76
2018-04-17T15:27:03.406Z,25.60
2018-04-17T15:29:31.053Z,25.49
2018-04-17T15:31:58.711Z,25.31
2018-04-17T15:34:26.412Z,25.10
2018-04-17T15:36:53.995Z,24.90
2018-04-17T15:39:22.019Z,24.69
2018-04-17T15:41:49.697Z,24.62
2018-04-17T15:44:17.308Z,24.57
2018-04-17T15:46:45.412Z,24.46
2018-04-17T15:49:13.177Z,24.54
2018-04-17T15:51:40.758Z,24.70
2018-04-17T15:54:08.387Z,24.76
2018-04-17T15:56:35.998Z,24.82
2018-04-17T15:59:03.728Z,24.89
2018-04-17T16:01:31.401Z,24.83
2018-04-17T16:03:59.417Z,24.68
2018-04-17T16:06:27.187Z,24.58
2018-04-17T16:08:54.844Z,24.49
2018-04-17T16:11:23.140Z,24.36
2018-04-17T16:13:50.743Z,24.27
2018-04-17T16:16:18.423Z,24.31
2018-04-17T16:18:46.044Z,24.30
2018-04-17T16:21:13.736Z,24.27
2018-04-17T16:23:42.134Z,24.20
2018-04-17T16:26:09.847Z,24.13
2018-04-17T16:28:37.443Z,23.99
2018-04-17T16:31:05.161Z,23.91
2018-04-17T16:33:33.336Z,23.85
2018-04-17T16:36:00.979Z,23.78
2018-04-17T16:38:28.734Z,23.61
2018-04-17T16:40:56.483Z,23.57
2018-04-17T16:43:24.084Z,23.42
2018-04-17T16:45:51.895Z,23.36
2018-04-17T16:48:19.660Z,23.44
2018-04-17T16:50:47.250Z,23.56
2018-04-17T16:53:15.068Z,23.50
2018-04-17T16:55:42.695Z,23.21
2018-04-17T16:58:10.377Z,23.08
2018-04-17T17:00:38.018Z,23.06
2018-04-17T17:03:05.760Z,23.07
2018-04-17T17:05:33.451Z,23.12
2018-04-17T17:08:01.175Z,23.08
2018-04-17T17:10:29.076Z,23.03
2018-04-17T17:12:56.715Z,22.91
2018-04-17T17:15:24.559Z,22.72
2018-04-17T17:17:52.222Z,22.59
2018-04-17T17:20:19.931Z,22.44
2018-04-17T17:22:47.989Z,22.35
2018-04-17T17:25:15.595Z,22.34
2018-04-17T17:27:43.229Z,22.29
2018-04-17T17:30:10.907Z,22.25
2018-04-17T17:32:38.694Z,22.25
2018-04-17T17:35:06.334Z,22.27
2018-04-17T17:37:34.200Z,22.29
2018-04-17T17:40:01.825Z,22.33
2018-04-17T17:42:29.477Z,22.36
2018-04-17T17:44:57.274Z,22.36
2018-04-17T17:47:25.001Z,22.26
2018-04-17T17:49:52.986Z,22.10
2018-04-17T17:52:20.654Z,21.98
2018-04-17T17:54:48.250Z,21.92
2018-04-17T17:57:16.177Z,21.89
2018-04-17T17:59:43.914Z,21.81
2018-04-17T18:02:11.542Z,21.78
2018-04-17T18:04:39.276Z,21.74
2018-04-17T18:07:06.972Z,21.72
2018-04-17T18:09:34.583Z,21.67
2018-04-17T18:12:02.208Z,21.62
2018-04-17T18:14:29.799Z,21.58
2018-04-17T18:16:57.674Z,21.53
2018-04-17T18:19:25.301Z,21.45
2018-04-17T18:21:52.927Z,21.29
2018-04-17T18:24:20.871Z,21.20
2018-04-17T18:26:48.611Z,21.14
2018-04-17T18:29:16.210Z,21.13
2018-04-17T18:31:43.872Z,21.10
2018-04-17T18:34:11.908Z,21.05
2018-04-17T18:36:39.491Z,21.00
2018-04-17T18:39:07.474Z,20.94
2018-04-17T18:41:35.250Z,20.88
2018-04-17T18:44:02.867Z,20.82
2018-04-17T18:46:30.516Z,20.74
2018-04-17T18:48:58.249Z,20.66
2018-04-17T18:51:25.953Z,20.59
2018-04-17T18:53:53.663Z,20.54
2018-04-17T18:56:21.277Z,20.48
2018-04-17T18:58:49.371Z,20.40
2018-04-17T19:01:16.962Z,20.32
2018-04-17T19:03:44.624Z,20.23
2018-04-17T19:06:12.252Z,20.16
2018-04-17T19:08:39.936Z,20.03
2018-04-17T19:11:07.569Z,19.95
2018-04-17T19:13:35.223Z,19.87
2018-04-17T19:16:02.843Z,19.79
2018-04-17T19:18:30.525Z,19.71
2018-04-17T19:20:58.231Z,19.64
2018-04-17T19:23:25.915Z,19.57
2018-04-17T19:25:53.547Z,19.51
2018-04-17T19:28:21.224Z,19.44
2018-04-17T19:30:49.041Z,19.38
2018-04-17T19:33:16.691Z,19.32
2018-04-17T19:35:44.614Z,19.25
2018-04-17T19:38:12.246Z,19.17
2018-04-17T19:40:39.903Z,19.09
2018-04-17T19:43:07.554Z,19.02
2018-04-17T19:45:35.167Z,18.93
2018-04-17T19:48:02.800Z,18.86
2018-04-17T19:50:30.512Z,18.76
2018-04-17T19:52:58.103Z,18.69
2018-04-17T19:55:25.761Z,18.61
2018-04-17T19:57:53.470Z,18.54
2018-04-17T20:00:22.054Z,18.48
2018-04-17T20:02:49.709Z,18.43
2018-04-17T20:05:17.445Z,18.36
2018-04-17T20:07:45.943Z,18.28
2018-04-17T20:10:13.567Z,18.21
2018-04-17T20:12:41.508Z,18.12
2018-04-17T20:15:09.169Z,18.02
2018-04-17T20:17:36.821Z,17.96
2018-04-17T20:20:04.501Z,17.87
2018-04-17T20:22:32.152Z,17.80
2018-04-17T20:24:59.740Z,17.74
2018-04-17T20:27:27.397Z,17.67
2018-04-17T20:29:55.019Z,17.56
2018-04-17T20:32:22.617Z,17.47
2018-04-17T20:34:50.240Z,17.35
2018-04-17T20:37:17.929Z,17.24
2018-04-17T20:39:45.671Z,17.13
2018-04-17T20:42:13.392Z,17.04
2018-04-17T20:44:41.187Z,17.01
2018-04-17T20:47:08.810Z,16.97
2018-04-17T20:49:36.493Z,16.93
2018-04-17T20:52:04.429Z,16.90
2018-04-17T20:54:32.123Z,16.88
2018-04-17T20:56:59.855Z,16.86
2018-04-17T20:59:27.530Z,16.84
2018-04-17T21:01:55.194Z,16.79
2018-04-17T21:04:22.821Z,16.75
2018-04-17T21:06:50.783Z,16.72
2018-04-17T21:09:18.653Z,16.68
2018-04-17T21:11:46.321Z,16.62
2018-04-17T21:14:13.910Z,16.57
2018-04-17T21:16:41.569Z,16.54
2018-04-17T21:19:09.603Z,16.49
2018-04-17T21:21:37.579Z,16.46
2018-04-17T21:24:05.180Z,16.40
2018-04-17T21:26:33.098Z,16.34
2018-04-17T21:29:00.754Z,16.25
2018-04-17T21:31:28.688Z,16.18
2018-04-17T21:33:56.531Z,16.13
2018-04-17T21:36:24.178Z,16.10
2018-04-17T21:38:52.081Z,16.05
2018-04-17T21:41:19.830Z,15.96
2018-04-17T21:43:47.765Z,15.87
2018-04-17T21:46:15.436Z,15.80
2018-04-17T21:48:43.049Z,15.76
2018-04-17T21:51:10.724Z,15.72
2018-04-17T21:53:38.402Z,15.67
2018-04-17T21:56:05.995Z,15.63
2018-04-17T21:58:34.118Z,15.59
2018-04-17T22:01:02.081Z,15.55
2018-04-17T22:03:29.836Z,15.51
2018-04-17T22:05:57.677Z,15.46
2018-04-17T22:08:25.413Z,15.39
2018-04-17T22:10:53.434Z,15.35
2018-04-17T22:13:21.115Z,15.30
2018-04-17T22:15:49.016Z,15.25
2018-04-17T22:18:16.853Z,15.21
2018-04-17T22:20:44.584Z,15.15
2018-04-17T22:23:12.374Z,15.10
2018-04-17T22:25:40.126Z,15.05
2018-04-17T22:28:07.801Z,15.00
2018-04-17T22:30:35.628Z,14.96
2018-04-17T22:33:03.280Z,14.91
2018-04-17T22:35:31.134Z,14.89
2018-04-17T22:37:58.776Z,14.85
2018-04-17T22:40:26.460Z,14.82
2018-04-17T22:42:54.240Z,14.77
2018-04-17T22:45:21.993Z,14.74
2018-04-17T22:47:49.863Z,14.70
2018-04-17T22:50:17.601Z,14.66
2018-04-17T22:52:45.352Z,14.63
2018-04-17T22:55:13.006Z,14.58
2018-04-17T22:57:40.796Z,14.52
2018-04-17T23:00:08.591Z,14.48
2018-04-17T23:02:37.008Z,14.43
2018-04-17T23:05:04.696Z,14.39
2018-04-17T23:07:32.409Z,14.31
2018-04-17T23:10:00.691Z,14.28
2018-04-17T23:12:28.296Z,14.24
2018-04-17T23:14:55.888Z,14.20
2018-04-17T23:17:23.495Z,14.17
2018-04-17T23:19:51.527Z,14.14
2018-04-17T23:22:19.203Z,14.11
2018-04-17T23:24:47.149Z,14.06
2018-04-17T23:27:14.938Z,14.00
2018-04-17T23:29:42.626Z,13.96
2018-04-17T23:32:10.713Z,13.92
2018-04-17T23:34:38.352Z,13.88
2018-04-17T23:37:06.082Z,13.84
2018-04-17T23:39:33.916Z,13.82
2018-04-17T23:42:02.009Z,13.79
2018-04-17T23:44:29.712Z,13.76
2018-04-17T23:46:57.492Z,13.73
2018-04-17T23:49:25.198Z,13.69
2018-04-17T23:51:53.146Z,13.66
2018-04-17T23:54:20.753Z,13.63
2018-04-17T23:56:48.377Z,13.60
2018-04-17T23:59:16.375Z,13.55
